Time;durP1;ratioP1;P1;durP2;ratioP2;P2;SDS_P1;SDS_P2;PMS_P1;PMS_P2;Temp;Humidity;BMP_temperature;BMP_pressure;BME280_temperature;BME280_humidity;BME280_pressure;Samples;Min_cycle;Max_cycle;Signal;HPM_P1;HPM_P2
2022/05/27 00:02:17;;;;;;;1.13;0.45;;;18.90;62.10;;;;;;5093541;28;20040;-74
2022/05/27 00:04:43;;;;;;;0.90;0.20;;;18.80;62.20;;;;;;5093819;28;20050;-70
2022/05/27 00:07:09;;;;;;;0.90;0.20;;;18.90;62.10;;;;;;5094748;28;20119;-75
2022/05/27 00:09:35;;;;;;;1.17;0.30;;;18.90;62.20;;;;;;5093482;28;20515;-74
2022/05/27 00:12:00;;;;;;;0.85;0.30;;;18.80;62.10;;;;;;5093537;28;20097;-74
2022/05/27 00:14:26;;;;;;;1.20;0.30;;;18.80;62.20;;;;;;5093618;28;20375;-75
2022/05/27 00:16:52;;;;;;;1.23;0.30;;;18.80;62.20;;;;;;5093276;28;20495;-74
2022/05/27 00:19:18;;;;;;;0.90;0.20;;;18.80;62.20;;;;;;5093489;28;20119;-75
2022/05/27 00:21:46;;;;;;;1.60;0.30;;;18.80;62.20;;;;;;5094491;28;20043;-74
2022/05/27 00:24:12;;;;;;;1.80;0.50;;;18.80;62.20;;;;;;5093393;28;20369;-75
2022/05/27 00:26:38;;;;;;;1.10;0.60;;;18.80;62.20;;;;;;5092985;28;20131;-75
2022/05/27 00:29:03;;;;;;;0.88;0.20;;;18.80;62.20;;;;;;5093081;28;20083;-74
2022/05/27 00:31:29;;;;;;;1.25;0.20;;;18.80;62.20;;;;;;5094309;28;20118;-74
2022/05/27 00:33:55;;;;;;;1.65;0.60;;;18.80;62.30;;;;;;5092903;28;20051;-75
2022/05/27 00:36:21;;;;;;;1.98;0.40;;;18.80;62.20;;;;;;5094383;28;20032;-75
2022/05/27 00:38:46;;;;;;;1.02;0.20;;;18.80;62.30;;;;;;5093059;28;20102;-75
2022/05/27 00:41:13;;;;;;;1.75;0.40;;;18.80;62.20;;;;;;5094162;28;20059;-75
2022/05/27 00:43:41;;;;;;;1.10;0.22;;;18.80;62.30;;;;;;5103459;28;20059;-75
2022/05/27 00:46:15;;;;;;;1.85;0.20;;;18.80;62.40;;;;;;5112753;28;20040;-74
2022/05/27 00:48:42;;;;;;;1.13;0.30;;;18.80;62.30;;;;;;5114352;28;20067;-74
2022/05/27 00:51:15;;;;;;;1.67;0.43;;;18.70;62.20;;;;;;5113323;28;20035;-76
2022/05/27 00:53:56;;;;;;;1.00;0.45;;;18.70;62.30;;;;;;5114237;28;20039;-74
2022/05/27 00:56:24;;;;;;;1.90;0.57;;;18.70;62.30;;;;;;5114185;28;20045;-75
2022/05/27 00:58:59;;;;;;;1.45;0.40;;;18.70;62.30;;;;;;5112860;28;20051;-75
2022/05/27 01:01:27;;;;;;;0.70;0.30;;;18.70;62.30;;;;;;5114272;28;20411;-75
2022/05/27 01:03:56;;;;;;;0.95;0.20;;;18.70;62.30;;;;;;5112727;28;20051;-75
2022/05/27 01:06:22;;;;;;;0.73;0.20;;;18.70;62.30;;;;;;5113954;28;20387;-75
2022/05/27 01:08:48;;;;;;;0.65;0.22;;;18.70;62.30;;;;;;5112469;28;20035;-75
2022/05/27 01:20:19;;;;;;;1.50;0.75;;;18.70;62.40;;;;;;5152915;27;1163410;-75
2022/05/27 01:31:21;;;;;;;1.75;0.20;;;18.70;62.50;;;;;;5130210;27;20213;-76
2022/05/27 01:40:03;;;;;;;1.77;0.20;;;18.70;62.50;;;;;;5130251;27;20442;-76
2022/05/27 01:43:07;;;;;;;1.00;0.20;;;18.60;62.40;;;;;;5146259;27;20047;-74
2022/05/27 01:46:00;;;;;;;0.70;0.20;;;18.60;62.50;;;;;;5130048;28;20393;-76
2022/05/27 01:56:55;;;;;;;1.27;0.30;;;18.60;62.50;;;;;;5130311;27;20399;-74
2022/05/27 01:59:37;;;;;;;1.52;0.20;;;18.70;62.50;;;;;;5129013;28;20051;-75
2022/05/27 02:02:10;;;;;;;1.52;0.38;;;18.60;62.50;;;;;;5128934;28;20525;-76
2022/05/27 02:04:41;;;;;;;0.77;0.40;;;18.60;62.50;;;;;;5129233;28;20118;-74
2022/05/27 02:07:21;;;;;;;2.17;0.30;;;18.60;62.50;;;;;;5128998;28;20039;-75
2022/05/27 02:09:50;;;;;;;;;;;18.60;62.50;;;;;;5130463;27;20159;-75
2022/05/27 02:12:29;;;;;;;0.82;0.20;;;18.70;62.60;;;;;;5129010;28;19966;-74
2022/05/27 02:15:01;;;;;;;1.67;0.20;;;18.60;62.50;;;;;;5130097;27;20561;-76
2022/05/27 02:17:35;;;;;;;2.17;0.30;;;18.60;62.60;;;;;;5128917;28;20069;-75
2022/05/27 02:20:07;;;;;;;0.95;0.30;;;18.60;62.50;;;;;;5128628;28;20040;-75
2022/05/27 02:22:39;;;;;;;1.17;0.30;;;18.60;62.50;;;;;;5129910;27;20105;-75
2022/05/27 02:25:12;;;;;;;1.90;0.20;;;18.50;62.50;;;;;;5128799;28;20039;-74
2022/05/27 02:30:23;;;;;;;1.13;0.30;;;18.60;62.50;;;;;;5130393;27;20751;-75
2022/05/27 02:35:44;;;;;;;0.85;0.20;;;18.60;62.50;;;;;;5130107;27;20052;-75
2022/05/27 02:38:11;;;;;;;0.90;0.20;;;18.60;62.50;;;;;;5129812;28;20047;-74
2022/05/27 02:40:54;;;;;;;0.70;0.20;;;18.50;62.50;;;;;;5129843;27;20039;-74
2022/05/27 02:43:37;;;;;;;1.50;0.25;;;18.50;62.50;;;;;;5130118;27;20031;-75
2022/05/27 02:57:13;;;;;;;0.60;0.20;;;18.50;62.60;;;;;;5130210;27;20844;-75
2022/05/27 02:59:40;;;;;;;2.58;0.50;;;18.50;62.60;;;;;;5129026;28;20073;-74
2022/05/27 03:02:10;;;;;;;1.30;0.20;;;18.50;62.60;;;;;;5129127;27;20039;-68
2022/05/27 03:04:41;;;;;;;3.50;0.47;;;18.50;63.30;;;;;;5128977;28;20067;-67
2022/05/27 03:09:54;;;;;;;0.80;0.20;;;18.50;62.60;;;;;;5130290;27;20387;-74
2022/05/27 03:15:33;;;;;;;1.17;0.30;;;18.50;62.60;;;;;;5130323;27;20350;-68
2022/05/27 03:18:31;;;;;;;1.63;0.30;;;18.50;63.40;;;;;;5129158;28;20046;-74
2022/05/27 03:21:35;;;;;;;2.67;0.43;;;18.40;62.70;;;;;;5128886;28;20054;-74
2022/05/27 03:24:43;;;;;;;2.45;0.47;;;18.40;62.60;;;;;;5128647;28;20058;-68
2022/05/27 03:27:34;;;;;;;0.68;0.10;;;18.40;62.70;;;;;;5129020;28;20057;-75
2022/05/27 03:33:05;;;;;;;0.88;0.20;;;18.40;62.70;;;;;;5130316;27;20403;-74
2022/05/27 03:35:39;;;;;;;0.93;0.20;;;18.40;62.70;;;;;;5129076;28;20049;-70
2022/05/27 03:41:10;;;;;;;1.13;0.20;;;18.40;62.70;;;;;;5089541;27;20916;-74
2022/05/27 03:43:40;;;;;;;1.20;0.30;;;18.40;62.70;;;;;;5088050;28;20540;-75
2022/05/27 03:46:05;;;;;;;0.75;0.20;;;18.40;62.60;;;;;;5088155;28;20040;-74
2022/05/27 03:48:33;;;;;;;1.38;0.20;;;18.40;62.60;;;;;;5088035;28;20052;-75
2022/05/27 03:51:14;;;;;;;1.80;0.20;;;18.40;62.60;;;;;;5089381;28;20066;-74
2022/05/27 03:54:11;;;;;;;0.95;0.20;;;18.40;62.60;;;;;;5088145;28;20033;-75
2022/05/27 03:56:25;;;;;;;0.85;0.28;;;18.40;62.60;;;;;;5087802;28;20050;-74
2022/05/27 03:58:51;;;;;;;0.80;0.17;;;18.40;62.50;;;;;;5087701;28;20123;-74
2022/05/27 04:01:22;;;;;;;0.98;0.20;;;18.40;62.50;;;;;;5088128;28;20036;-75
2022/05/27 04:03:47;;;;;;;1.67;0.20;;;18.40;62.50;;;;;;5088110;28;20044;-68
2022/05/27 04:06:13;;;;;;;1.35;0.30;;;18.40;62.50;;;;;;5088996;28;20472;-75
2022/05/27 04:08:39;;;;;;;0.90;0.13;;;18.40;62.50;;;;;;5087728;28;20048;-72
2022/05/27 04:11:04;;;;;;;1.50;0.22;;;18.40;62.50;;;;;;5087855;28;20051;-74
2022/05/27 04:13:30;;;;;;;1.70;0.20;;;18.40;62.50;;;;;;5088740;28;20621;-74
2022/05/27 04:15:55;;;;;;;2.00;0.40;;;18.40;62.50;;;;;;5088792;28;20123;-74
2022/05/27 04:18:21;;;;;;;1.30;0.20;;;18.40;62.50;;;;;;5087695;28;20054;-74
2022/05/27 04:20:46;;;;;;;1.05;0.30;;;18.40;62.40;;;;;;5087401;28;20036;-67
2022/05/27 04:23:12;;;;;;;3.03;0.30;;;18.40;62.40;;;;;;5087707;28;20032;-74
2022/05/27 04:25:38;;;;;;;1.85;0.30;;;18.40;62.40;;;;;;5088632;28;20111;-68
2022/05/27 04:28:04;;;;;;;1.95;0.20;;;18.40;62.40;;;;;;5088633;28;20040;-75
2022/05/27 04:30:32;;;;;;;0.95;0.20;;;18.40;62.40;;;;;;5087107;28;20040;-74
2022/05/27 04:32:58;;;;;;;1.55;0.40;;;18.40;62.40;;;;;;5087234;28;20050;-74
2022/05/27 04:35:24;;;;;;;2.20;0.57;;;18.40;62.40;;;;;;5088531;28;20119;-75
2022/05/27 04:37:49;;;;;;;1.83;0.20;;;18.40;62.30;;;;;;5087465;28;20044;-69
2022/05/27 04:40:15;;;;;;;0.50;0.20;;;18.40;62.40;;;;;;5086780;28;20433;-74
2022/05/27 04:42:41;;;;;;;2.42;0.30;;;18.40;62.40;;;;;;5086938;28;20048;-73
2022/05/27 04:45:07;;;;;;;1.40;0.30;;;18.30;62.20;;;;;;5087220;28;20044;-73
2022/05/27 04:47:33;;;;;;;1.02;0.20;;;18.40;62.30;;;;;;5088383;28;20032;-75
2022/05/27 04:49:58;;;;;;;1.73;0.30;;;18.40;62.30;;;;;;5087209;28;20044;-74
2022/05/27 04:52:27;;;;;;;1.33;0.38;;;18.40;63.00;;;;;;5074220;28;20050;-74
2022/05/27 04:54:55;;;;;;;2.17;0.40;;;18.40;62.30;;;;;;5073187;28;20392;-74
2022/05/27 04:57:24;;;;;;;2.58;0.20;;;18.40;62.30;;;;;;5074538;28;20127;-74
2022/05/27 04:59:50;;;;;;;0.70;0.17;;;18.40;62.30;;;;;;5073251;28;20135;-74
2022/05/27 05:02:18;;;;;;;1.85;0.30;;;18.30;62.20;;;;;;5074472;28;20082;-74
2022/05/27 05:04:44;;;;;;;4.63;0.30;;;18.30;62.20;;;;;;5073184;28;20040;-74
2022/05/27 05:07:10;;;;;;;1.30;0.20;;;18.30;62.20;;;;;;5073321;28;20124;-74
2022/05/27 05:09:38;;;;;;;3.90;0.30;;;18.30;62.20;;;;;;5073321;28;20036;-75
2022/05/27 05:12:05;;;;;;;2.70;0.40;;;18.40;62.30;;;;;;5074248;28;20507;-74
2022/05/27 05:14:31;;;;;;;0.85;0.40;;;18.30;62.20;;;;;;5073200;28;20048;-72
2022/05/27 05:16:57;;;;;;;2.13;0.30;;;18.30;62.20;;;;;;5072920;28;20094;-74
2022/05/27 05:19:23;;;;;;;2.45;0.40;;;18.40;62.20;;;;;;5074253;28;20048;-74
2022/05/27 05:21:49;;;;;;;1.60;0.30;;;18.40;62.90;;;;;;5072884;28;20194;-74
2022/05/27 05:24:14;;;;;;;1.73;0.20;;;18.40;62.10;;;;;;5074102;28;20032;-73
2022/05/27 05:26:40;;;;;;;1.13;0.20;;;18.40;62.10;;;;;;5074067;28;20047;-73
2022/05/27 05:29:06;;;;;;;1.48;0.30;;;18.40;62.10;;;;;;5072867;28;20051;-73
2022/05/27 05:31:32;;;;;;;2.08;0.30;;;18.40;62.10;;;;;;5073862;28;20120;-75
2022/05/27 05:34:02;;;;;;;2.95;0.40;;;18.40;62.00;;;;;;5072609;28;20626;-73
2022/05/27 05:36:29;;;;;;;1.67;0.43;;;18.30;61.90;;;;;;5072892;28;20040;-74
2022/05/27 05:38:55;;;;;;;1.45;0.28;;;18.40;62.00;;;;;;5073546;28;20098;-73
2022/05/27 05:41:27;;;;;;;1.17;0.30;;;18.40;61.90;;;;;;5073799;28;20055;-74
2022/05/27 05:43:54;;;;;;;3.05;0.30;;;18.40;61.90;;;;;;5072513;28;20135;-69
2022/05/27 05:46:20;;;;;;;1.52;0.30;;;18.40;61.80;;;;;;5072413;28;20127;-76
2022/05/27 05:48:45;;;;;;;0.90;0.30;;;18.40;61.70;;;;;;5073698;28;20087;-74
2022/05/27 05:51:11;;;;;;;1.35;0.30;;;18.40;61.70;;;;;;5072339;28;20505;-74
2022/05/27 05:53:37;;;;;;;2.00;0.20;;;18.40;61.70;;;;;;5072396;28;20059;-73
2022/05/27 05:56:02;;;;;;;1.83;0.40;;;18.40;61.60;;;;;;5055778;28;20119;-68
2022/05/27 05:58:28;;;;;;;1.30;0.22;;;18.40;61.50;;;;;;5071939;28;20115;-75
2022/05/27 06:00:53;;;;;;;2.42;0.40;;;18.40;61.40;;;;;;5072384;28;20101;-67
2022/05/27 06:03:19;;;;;;;1.98;0.40;;;18.40;61.40;;;;;;5071084;28;20560;-74
2022/05/27 06:05:47;;;;;;;1.67;0.20;;;18.50;61.40;;;;;;5071962;28;20074;-74
2022/05/27 06:08:14;;;;;;;1.60;0.60;;;18.50;61.40;;;;;;5072162;28;20089;-74
2022/05/27 06:10:40;;;;;;;1.40;0.43;;;18.40;61.20;;;;;;5071893;28;20072;-73
2022/05/27 06:13:06;;;;;;;5.65;0.40;;;18.50;61.20;;;;;;5071821;28;20044;-73
2022/05/27 06:15:32;;;;;;;1.58;0.80;;;18.40;61.10;;;;;;5072922;28;20045;-73
2022/05/27 06:17:59;;;;;;;1.75;0.30;;;18.50;61.20;;;;;;5073024;28;20044;-74
2022/05/27 06:20:26;;;;;;;1.45;0.30;;;18.50;61.10;;;;;;5071587;28;20374;-73
2022/05/27 06:22:52;;;;;;;1.35;0.40;;;18.50;61.00;;;;;;5071655;28;20044;-72
2022/05/27 06:25:18;;;;;;;1.30;0.30;;;18.50;61.00;;;;;;5072843;28;20036;-73
2022/05/27 06:27:44;;;;;;;3.08;0.38;;;18.50;60.90;;;;;;5071790;28;20056;-72
2022/05/27 06:35:37;;;;;;;2.83;0.40;;;18.50;60.80;;;;;;5130227;27;20893;-74
2022/05/27 06:38:03;;;;;;;2.55;0.20;;;18.50;60.80;;;;;;5146257;27;20040;-73
2022/05/27 06:40:29;;;;;;;2.95;0.85;;;18.50;60.70;;;;;;5128897;28;20039;-73
2022/05/27 06:42:55;;;;;;;2.20;0.38;;;18.50;60.60;;;;;;5129130;28;20099;-73
2022/05/27 06:45:21;;;;;;;2.00;0.30;;;18.50;60.50;;;;;;5128997;28;20043;-73
2022/05/27 06:47:46;;;;;;;2.60;0.45;;;18.50;60.40;;;;;;5129114;28;20453;-73
2022/05/27 06:50:13;;;;;;;2.28;0.30;;;18.50;60.30;;;;;;5128951;28;20391;-73
2022/05/27 06:52:40;;;;;;;2.97;0.50;;;18.50;60.10;;;;;;5128772;28;20106;-73
2022/05/27 06:55:08;;;;;;;2.25;0.30;;;18.50;60.10;;;;;;5128165;28;20593;-73
2022/05/27 06:57:34;;;;;;;1.77;0.30;;;18.60;60.00;;;;;;5129239;27;20046;-72
2022/05/27 07:00:00;;;;;;;2.80;0.75;;;18.60;59.90;;;;;;5128446;28;20043;-73
2022/05/27 07:02:26;;;;;;;2.03;0.30;;;18.60;59.80;;;;;;5128873;28;20036;-67
2022/05/27 07:04:52;;;;;;;3.53;0.30;;;18.60;59.80;;;;;;5128525;27;20119;-74
2022/05/27 07:07:18;;;;;;;3.60;0.52;;;18.60;59.90;;;;;;5129707;28;20035;-73
2022/05/27 07:09:43;;;;;;;1.20;0.30;;;18.60;59.90;;;;;;5128407;28;20063;-73
2022/05/27 07:12:12;;;;;;;1.48;0.20;;;18.60;59.80;;;;;;5129293;27;20120;-73
2022/05/27 07:14:39;;;;;;;3.95;0.63;;;18.60;59.70;;;;;;5127493;28;20043;-71
2022/05/27 07:17:05;;;;;;;2.22;0.50;;;18.60;59.70;;;;;;5129016;27;20499;-73
2022/05/27 07:19:30;;;;;;;2.10;0.55;;;18.60;59.70;;;;;;5128030;27;20042;-73
2022/05/27 07:21:58;;;;;;;2.67;0.43;;;18.60;59.60;;;;;;5129425;27;20039;-73
2022/05/27 07:24:25;;;;;;;1.75;0.55;;;18.60;59.40;;;;;;5128338;27;20058;-68
2022/05/27 07:26:51;;;;;;;4.50;0.38;;;18.70;59.30;;;;;;5127984;28;20421;-73
2022/05/27 07:29:16;;;;;;;1.75;0.20;;;18.70;59.20;;;;;;5128079;28;20502;-71
2022/05/27 07:31:43;;;;;;;1.38;0.30;;;18.70;59.10;;;;;;5127362;28;20109;-73
2022/05/27 07:34:10;;;;;;;4.78;0.50;;;18.80;59.00;;;;;;5126877;27;20122;-72
2022/05/27 07:36:35;;;;;;;4.78;0.35;;;18.80;58.90;;;;;;5128646;27;20111;-72
2022/05/27 07:39:02;;;;;;;2.97;0.40;;;18.80;58.70;;;;;;5127822;28;20533;-72
2022/05/27 07:41:28;;;;;;;5.40;0.82;;;18.90;58.60;;;;;;5127327;28;20043;-69
2022/05/27 07:43:55;;;;;;;3.97;0.60;;;18.90;58.40;;;;;;5127774;28;20058;-69
2022/05/27 07:46:22;;;;;;;4.65;0.45;;;18.90;58.20;;;;;;5117553;28;20202;-70
2022/05/27 07:48:48;;;;;;;2.17;0.40;;;18.90;58.00;;;;;;5113787;28;20461;-67
2022/05/27 07:51:13;;;;;;;3.90;0.93;;;18.90;57.90;;;;;;5114220;28;20098;-67
2022/05/27 07:53:39;;;;;;;3.47;0.45;;;18.90;57.80;;;;;;5113220;28;20044;-68
2022/05/27 07:56:06;;;;;;;2.58;0.30;;;18.90;57.70;;;;;;5112636;28;20035;-68
2022/05/27 07:58:33;;;;;;;3.00;0.57;;;19.00;57.60;;;;;;5114631;28;20028;-69
2022/05/27 08:00:59;;;;;;;3.25;0.30;;;19.00;57.50;;;;;;5113482;28;20046;-67
2022/05/27 08:03:25;;;;;;;3.30;0.50;;;19.00;57.30;;;;;;5113688;28;20486;-67
2022/05/27 08:05:51;;;;;;;2.17;1.05;;;19.00;57.20;;;;;;5129445;27;20049;-67
2022/05/27 08:08:19;;;;;;;2.35;0.40;;;19.00;57.10;;;;;;5113739;28;20394;-67
2022/05/27 08:10:46;;;;;;;2.97;0.77;;;19.00;57.00;;;;;;5113353;28;20066;-69
2022/05/27 08:13:12;;;;;;;2.25;0.30;;;19.00;57.00;;;;;;5112795;28;20035;-66
2022/05/27 08:15:38;;;;;;;4.32;0.50;;;19.00;56.90;;;;;;5113085;28;20040;-70
2022/05/27 08:18:04;;;;;;;1.63;0.30;;;19.00;56.70;;;;;;5111375;28;20036;-69
2022/05/27 08:20:33;;;;;;;2.33;0.43;;;19.10;56.70;;;;;;5113292;28;20471;-69
2022/05/27 08:23:00;;;;;;;2.63;0.43;;;19.10;56.50;;;;;;5110459;28;20039;-70
2022/05/27 08:25:27;;;;;;;4.65;0.93;;;19.10;56.40;;;;;;5111624;28;20112;-67
2022/05/27 08:27:54;;;;;;;5.22;0.55;;;19.10;56.30;;;;;;5111656;28;20047;-71
2022/05/27 08:30:23;;;;;;;4.15;0.40;;;19.20;56.20;;;;;;5112509;28;20123;-69
2022/05/27 08:32:49;;;;;;;1.83;0.30;;;19.30;56.10;;;;;;5112856;28;20046;-68
2022/05/27 08:38:07;;;;;;;3.55;0.40;;;19.40;55.50;;;;;;5111235;28;20047;-68
2022/05/27 08:46:50;;;;;;;4.20;0.80;;;19.70;54.40;;;;;;5129013;27;20358;-68
2022/05/27 08:49:24;;;;;;;2.90;0.55;;;19.80;53.90;;;;;;5127890;27;20076;-68
2022/05/27 08:54:40;;;;;;;2.80;0.77;;;20.00;53.30;;;;;;5129604;27;20402;-68
2022/05/27 09:05:25;;;;;;;2.85;0.50;;;20.60;51.70;;;;;;5109045;27;20412;-71
2022/05/27 09:11:44;;;;;;;3.20;1.00;;;21.10;50.90;;;;;;5107868;27;20411;-71
2022/05/27 09:14:14;;;;;;;4.45;0.60;;;21.30;49.60;;;;;;5084278;28;20092;-71
2022/05/27 09:17:02;;;;;;;5.45;0.47;;;21.50;49.20;;;;;;5088199;28;20051;-71
2022/05/27 09:22:49;;;;;;;3.00;0.40;;;21.60;48.60;;;;;;5087715;27;20402;-71
2022/05/27 09:28:40;;;;;;;3.53;0.43;;;21.50;48.80;;;;;;5108323;27;20918;-70
2022/05/27 09:31:09;;;;;;;3.03;0.40;;;21.20;49.00;;;;;;5104916;28;20044;-71
2022/05/27 09:33:36;;;;;;;3.42;0.50;;;21.20;49.10;;;;;;5105228;28;20063;-71
2022/05/27 09:38:50;;;;;;;2.08;0.55;;;21.30;48.70;;;;;;5144678;27;1382728;-69
2022/05/27 09:41:23;;;;;;;4.10;0.32;;;21.20;48.50;;;;;;5152655;27;20043;-68
2022/05/27 09:43:58;;;;;;;3.38;0.30;;;21.30;48.40;;;;;;5140137;27;20047;-69
2022/05/27 09:46:29;;;;;;;2.70;0.40;;;21.40;48.20;;;;;;5131920;27;20035;-69
2022/05/27 09:48:57;;;;;;;2.10;0.50;;;21.50;48.00;;;;;;5131501;27;20053;-70
2022/05/27 09:51:24;;;;;;;3.17;0.47;;;21.40;48.00;;;;;;5134660;27;20042;-69
2022/05/27 09:53:55;;;;;;;8.77;0.90;;;21.30;48.20;;;;;;5150686;27;20105;-68
2022/05/27 09:59:27;;;;;;;4.22;0.30;;;21.30;48.70;;;;;;5109054;27;20296;-71
2022/05/27 10:02:11;;;;;;;3.00;0.30;;;21.20;48.60;;;;;;5107942;28;20040;-70
2022/05/27 10:04:50;;;;;;;4.47;0.40;;;21.20;48.50;;;;;;5107694;28;20044;-70
2022/05/27 10:07:23;;;;;;;4.85;0.43;;;21.20;48.50;;;;;;5107805;28;20044;-70
2022/05/27 10:09:49;;;;;;;1.98;0.50;;;21.20;48.70;;;;;;5108606;28;20134;-70
2022/05/27 10:12:30;;;;;;;1.63;0.35;;;21.10;48.70;;;;;;5108512;28;20119;-70
2022/05/27 10:14:56;;;;;;;3.30;0.30;;;21.10;48.80;;;;;;5108286;28;20079;-65
2022/05/27 10:17:36;;;;;;;2.17;0.22;;;21.10;48.80;;;;;;5109612;28;20079;-70
2022/05/27 10:20:27;;;;;;;3.28;0.30;;;21.00;48.90;;;;;;5109594;28;20035;-70
2022/05/27 10:23:04;;;;;;;2.92;0.40;;;20.90;49.10;;;;;;5108029;28;20118;-70
2022/05/27 10:25:35;;;;;;;1.77;0.50;;;20.90;49.10;;;;;;5108337;28;20713;-70
2022/05/27 10:28:02;;;;;;;2.42;0.30;;;20.90;49.10;;;;;;5108190;28;20066;-67
2022/05/27 10:30:32;;;;;;;1.92;0.30;;;20.90;49.00;;;;;;5108259;28;20051;-69
2022/05/27 10:35:53;;;;;;;2.13;0.50;;;20.80;49.00;;;;;;5130231;27;20403;-70
2022/05/27 10:38:45;;;;;;;2.42;0.30;;;20.80;48.90;;;;;;5128971;28;20096;-70
2022/05/27 10:41:24;;;;;;;3.35;0.40;;;20.80;49.00;;;;;;5129016;28;20047;-70
2022/05/27 10:46:44;;;;;;;3.33;0.60;;;20.80;49.00;;;;;;5089324;27;20368;-70
2022/05/27 10:54:55;;;;;;;2.58;0.30;;;20.70;49.00;;;;;;5128831;27;20398;-72
2022/05/27 11:15:25;;;;;;;1.90;0.35;;;20.60;48.70;;;;;;5088873;27;21077;-65
2022/05/27 11:20:46;;;;;;;2.05;0.40;;;20.60;48.80;;;;;;5129161;27;20353;-72
2022/05/27 11:35:24;;;;;;;1.95;0.25;;;20.40;49.20;;;;;;5109160;27;20111;-72
2022/05/27 11:44:00;;;;;;;2.60;0.35;;;20.40;49.10;;;;;;5108944;27;20383;-71
2022/05/27 11:49:35;;;;;;;3.10;0.30;;;20.30;49.20;;;;;;5149695;27;1229594;-65
2022/05/27 11:52:20;;;;;;;2.63;0.50;;;20.20;49.20;;;;;;5152502;27;20111;-68
2022/05/27 12:00:13;;;;;;;4.72;0.82;;;20.20;49.20;;;;;;5129739;27;20422;-72
2022/05/27 12:05:38;;;;;;;2.92;0.45;;;20.30;49.30;;;;;;5108824;27;20899;-72
2022/05/27 12:13:54;;;;;;;2.80;0.40;;;20.30;49.00;;;;;;5130244;27;20390;-70
2022/05/27 12:16:27;;;;;;;1.45;0.28;;;20.30;48.90;;;;;;5129193;28;20368;-71
2022/05/27 12:19:16;;;;;;;2.58;0.40;;;20.20;49.00;;;;;;5129223;28;20057;-70
2022/05/27 12:21:47;;;;;;;2.38;0.75;;;20.20;49.10;;;;;;5128713;28;20039;-71
2022/05/27 12:27:12;;;;;;;4.78;1.02;;;20.20;49.30;;;;;;5088411;27;20385;-70
2022/05/27 12:29:39;;;;;;;;;;;20.20;49.20;;;;;;5088094;28;20048;-71
2022/05/27 12:32:11;;;;;;;1.30;0.30;;;20.20;49.50;;;;;;5087206;28;19916;-70
2022/05/27 12:34:41;;;;;;;2.53;0.38;;;20.20;49.40;;;;;;5071715;28;20085;-70
2022/05/27 12:37:28;;;;;;;2.60;0.40;;;20.10;49.30;;;;;;5088055;28;20491;-71
2022/05/27 12:43:02;;;;;;;1.95;0.38;;;20.10;49.40;;;;;;5087878;28;20394;-69
2022/05/27 12:45:49;;;;;;;1.83;0.28;;;20.10;49.40;;;;;;5088132;28;20607;-69
2022/05/27 12:48:27;;;;;;;2.35;0.40;;;20.10;49.30;;;;;;5088090;28;20115;-70
2022/05/27 12:50:56;;;;;;;2.72;0.35;;;20.10;49.30;;;;;;5088238;28;20048;-69
2022/05/27 13:05:04;;;;;;;1.70;0.40;;;20.00;49.30;;;;;;5130268;27;20419;-69
2022/05/27 13:13:02;;;;;;;2.53;0.38;;;20.10;49.30;;;;;;5130286;27;20418;-69
2022/05/27 13:15:54;;;;;;;3.85;0.60;;;20.00;49.30;;;;;;5129169;28;20410;-69
2022/05/27 13:18:35;;;;;;;3.13;0.40;;;20.10;49.40;;;;;;5128920;27;20047;-70
2022/05/27 13:29:28;;;;;;;1.95;0.30;;;20.00;49.20;;;;;;5130339;27;20349;-69
2022/05/27 13:32:17;;;;;;;2.85;0.43;;;20.00;49.20;;;;;;5146527;27;20039;-70
2022/05/27 13:34:54;;;;;;;2.70;0.40;;;20.00;49.30;;;;;;5146375;27;20047;-70
2022/05/27 13:40:30;;;;;;;5.03;0.73;;;20.00;49.20;;;;;;5130275;27;20387;-69
2022/05/27 13:43:01;;;;;;;1.60;0.40;;;20.00;49.30;;;;;;5128967;28;20126;-65
2022/05/27 13:45:33;;;;;;;2.15;0.40;;;19.90;49.30;;;;;;5129217;28;20034;-70
2022/05/27 13:48:13;;;;;;;3.25;0.52;;;20.00;49.30;;;;;;5128762;28;20121;-71
2022/05/27 13:50:41;;;;;;;4.18;0.65;;;19.90;49.30;;;;;;5128684;28;20040;-69
2022/05/27 13:53:28;;;;;;;5.40;1.20;;;20.00;49.30;;;;;;5129981;27;20491;-70
2022/05/27 13:58:58;;;;;;;4.03;0.90;;;20.00;49.20;;;;;;5109715;27;20768;-69
2022/05/27 14:01:32;;;;;;;2.65;0.50;;;20.00;50.00;;;;;;5109801;28;20085;-70
2022/05/27 14:07:00;;;;;;;4.35;0.98;;;20.00;49.20;;;;;;5130844;27;21017;-70
2022/05/27 14:09:31;;;;;;;3.22;0.30;;;20.10;49.20;;;;;;5130718;28;20100;-71
2022/05/27 14:12:01;;;;;;;5.13;0.80;;;20.10;49.10;;;;;;5129179;28;20043;-72
2022/05/27 14:14:31;;;;;;;2.42;0.70;;;20.10;49.10;;;;;;5129050;28;20049;-70
2022/05/27 14:16:57;;;;;;;;;;;20.10;49.00;;;;;;5129270;28;20078;-71
2022/05/27 14:19:26;;;;;;;1.83;0.35;;;20.10;49.20;;;;;;5128980;28;19971;-69
2022/05/27 14:24:48;;;;;;;3.45;0.50;;;20.10;49.10;;;;;;5129571;28;20506;-72
2022/05/27 14:27:18;;;;;;;4.57;0.55;;;20.00;49.20;;;;;;5128968;28;20049;-70
2022/05/27 14:29:44;;;;;;;3.65;0.40;;;20.00;49.20;;;;;;5129791;27;20035;-69
2022/05/27 14:32:18;;;;;;;3.33;0.50;;;20.00;49.20;;;;;;5128839;28;20072;-69
2022/05/27 14:34:48;;;;;;;4.20;0.98;;;20.00;49.20;;;;;;5129591;27;20089;-71
2022/05/27 14:40:10;;;;;;;3.47;0.40;;;20.00;49.20;;;;;;5109810;27;20295;-71
2022/05/27 14:42:36;;;;;;;3.05;0.40;;;20.00;49.10;;;;;;5108478;28;20118;-69
2022/05/27 14:45:03;;;;;;;3.80;0.50;;;20.00;49.10;;;;;;5108635;28;20517;-70
2022/05/27 14:47:32;;;;;;;3.10;0.47;;;19.90;49.10;;;;;;5108701;28;20040;-71
2022/05/27 14:50:18;;;;;;;3.30;0.65;;;19.90;49.10;;;;;;5109559;28;20502;-71
2022/05/27 14:52:53;;;;;;;2.67;0.43;;;19.90;48.90;;;;;;5108601;28;20094;-71
2022/05/27 14:55:26;;;;;;;3.28;0.35;;;19.90;49.10;;;;;;5109485;28;20114;-69
2022/05/27 14:57:57;;;;;;;3.28;0.43;;;19.90;49.10;;;;;;5108419;28;20044;-71
2022/05/27 15:03:23;;;;;;;3.40;0.80;;;20.00;49.20;;;;;;5130216;27;20410;-70
2022/05/27 15:05:48;;;;;;;1.67;0.50;;;19.90;49.10;;;;;;5128960;28;20051;-70
2022/05/27 15:11:25;;;;;;;1.95;0.32;;;19.90;49.10;;;;;;5152005;27;1185480;-69
2022/05/27 15:13:55;;;;;;;3.55;0.50;;;20.00;49.20;;;;;;5152985;27;20054;-70
2022/05/27 15:16:32;;;;;;;3.60;0.60;;;20.00;49.10;;;;;;5153301;27;20121;-70
2022/05/27 15:21:45;;;;;;;3.97;1.15;;;20.00;49.00;;;;;;5109765;27;20411;-71
2022/05/27 15:24:21;;;;;;;4.00;0.77;;;20.00;49.00;;;;;;5125921;28;20086;-70
2022/05/27 15:35:46;;;;;;;4.07;0.38;;;20.00;49.00;;;;;;5108363;28;20402;-70
2022/05/27 15:38:13;;;;;;;2.97;0.43;;;20.00;49.00;;;;;;5108085;28;20032;-71
2022/05/27 15:40:41;;;;;;;4.13;0.88;;;20.00;48.90;;;;;;5108176;28;20052;-71
2022/05/27 15:43:17;;;;;;;2.97;0.75;;;20.00;48.90;;;;;;5108349;28;20027;-70
2022/05/27 15:45:47;;;;;;;2.20;0.30;;;19.90;48.90;;;;;;5109472;28;20078;-70
2022/05/27 15:48:14;;;;;;;1.95;0.30;;;19.90;49.00;;;;;;5108321;28;20089;-70
2022/05/27 15:50:42;;;;;;;2.38;0.40;;;19.90;49.10;;;;;;5107956;28;20128;-70
2022/05/27 15:53:08;;;;;;;2.70;0.45;;;19.90;49.10;;;;;;5107976;28;20055;-70
2022/05/27 15:55:34;;;;;;;2.30;0.63;;;19.80;49.10;;;;;;5107958;28;20047;-68
2022/05/27 15:58:00;;;;;;;2.15;0.30;;;19.80;49.10;;;;;;5109266;28;20040;-70
2022/05/27 16:00:26;;;;;;;3.03;0.35;;;19.80;49.10;;;;;;5107978;28;20040;-70
2022/05/27 16:02:52;;;;;;;3.45;0.73;;;19.80;49.10;;;;;;5107669;28;20040;-69
2022/05/27 16:05:18;;;;;;;2.65;0.50;;;19.80;49.20;;;;;;5109124;28;20028;-71
2022/05/27 16:07:45;;;;;;;1.23;0.30;;;19.80;49.10;;;;;;5107619;28;20104;-70
2022/05/27 16:10:11;;;;;;;2.90;0.50;;;19.80;49.10;;;;;;5107642;28;20051;-70
2022/05/27 16:12:37;;;;;;;2.13;0.80;;;19.70;49.10;;;;;;5107678;28;20055;-70
2022/05/27 16:15:06;;;;;;;2.80;0.50;;;19.70;49.10;;;;;;5107731;28;20035;-70
2022/05/27 16:18:03;;;;;;;3.65;0.57;;;19.70;49.20;;;;;;5107618;28;20058;-71
2022/05/27 16:20:22;;;;;;;2.47;0.52;;;19.70;49.20;;;;;;5107072;28;20052;-70
2022/05/27 16:22:49;;;;;;;3.40;0.40;;;19.60;49.30;;;;;;5107602;28;20127;-70
2022/05/27 16:25:19;;;;;;;1.83;0.25;;;19.60;49.30;;;;;;5108602;28;20036;-71
2022/05/27 16:27:47;;;;;;;2.20;0.40;;;19.60;49.20;;;;;;5107603;28;20051;-70
2022/05/27 16:30:19;;;;;;;2.42;0.30;;;19.60;49.20;;;;;;5107534;28;20043;-72
2022/05/27 16:32:45;;;;;;;3.20;0.40;;;19.60;49.20;;;;;;5096017;28;20111;-70
2022/05/27 16:35:14;;;;;;;1.83;0.38;;;19.60;49.30;;;;;;5093764;28;20051;-71
2022/05/27 16:37:40;;;;;;;3.03;0.40;;;19.60;49.30;;;;;;5093844;28;20093;-70
2022/05/27 16:40:06;;;;;;;2.42;0.45;;;19.50;49.40;;;;;;5093592;28;20418;-70
2022/05/27 16:42:32;;;;;;;2.60;0.40;;;19.50;49.50;;;;;;5094838;28;20111;-71
2022/05/27 16:44:58;;;;;;;2.60;0.32;;;19.50;49.60;;;;;;5093337;28;20197;-71
2022/05/27 16:47:24;;;;;;;3.22;0.40;;;19.50;49.70;;;;;;5093501;28;20051;-65
2022/05/27 16:49:50;;;;;;;4.05;1.25;;;19.40;49.70;;;;;;5094718;28;20055;-70
2022/05/27 16:52:16;;;;;;;3.47;0.57;;;19.40;49.80;;;;;;5093303;28;20040;-70
2022/05/27 16:54:42;;;;;;;3.85;0.47;;;19.30;49.80;;;;;;5093172;28;20044;-71
2022/05/27 16:57:09;;;;;;;1.95;0.40;;;19.30;49.90;;;;;;5093399;28;20039;-70